Time;durP1;ratioP1;P1;durP2;ratioP2;P2;SDS_P1;SDS_P2;PMS_P1;PMS_P2;Temp;Humidity;BMP_temperature;BMP_pressure;BME280_temperature;BME280_humidity;BME280_pressure;Samples;Min_cycle;Max_cycle;Signal;HPM_P1;HPM_P2
2021/10/28 00:14:20;;;;;;;;;;;;;;;6.28;75.64;100415.27;1683159;83;22754;-58
2021/10/28 00:16:51;;;;;;;27.63;15.03;;;;;;;6.30;75.66;100404.52;1678249;83;20519;-60
2021/10/28 00:19:17;;;;;;;24.93;16.70;;;;;;;6.31;75.66;100404.94;1675123;83;21401;-59
2021/10/28 00:21:45;;;;;;;30.67;18.47;;;;;;;6.31;75.69;100403.15;1679337;83;21530;-59
2021/10/28 00:24:12;;;;;;;27.10;18.30;;;;;;;6.32;75.69;100396.89;1680806;83;21136;-58
2021/10/28 00:26:40;;;;;;;28.53;18.03;;;;;;;6.36;75.68;100405.75;1680291;83;21202;-58
2021/10/28 00:29:09;;;;;;;27.70;18.20;;;;;;;6.36;75.65;100405.75;1682351;83;21553;-59
2021/10/28 00:31:38;;;;;;;23.73;17.27;;;;;;;6.36;75.57;100401.73;1679974;83;21073;-59
2021/10/28 00:34:07;;;;;;;30.20;21.13;;;;;;;6.33;75.54;100400.00;1687203;83;21441;-58
2021/10/28 00:36:35;;;;;;;28.43;17.97;;;;;;;6.33;75.54;100403.13;1684088;83;21037;-58
2021/10/28 00:39:01;;;;;;;28.40;18.53;;;;;;;6.31;75.55;100398.25;1679042;83;22006;-59
2021/10/28 00:41:28;;;;;;;22.83;16.23;;;;;;;6.29;75.55;100396.98;1679351;83;21113;-58
2021/10/28 00:43:57;;;;;;;25.37;16.70;;;;;;;6.28;75.57;100397.89;1726414;81;21260;-58
2021/10/28 00:46:27;;;;;;;21.40;15.17;;;;;;;6.28;75.60;100391.20;1726630;81;21088;-58
2021/10/28 00:48:53;;;;;;;26.77;17.53;;;;;;;6.29;75.60;100382.73;1692177;83;21097;-59
2021/10/28 00:51:23;;;;;;;23.17;15.77;;;;;;;6.30;75.58;100396.49;1668212;84;21135;-58
2021/10/28 00:53:50;;;;;;;25.40;16.80;;;;;;;6.30;75.62;100389.36;1695723;83;21561;-58
2021/10/28 00:56:17;;;;;;;23.40;17.03;;;;;;;6.31;75.61;100387.11;1730117;81;20906;-58
2021/10/28 00:58:43;;;;;;;25.43;18.03;;;;;;;6.33;75.59;100388.42;1732773;81;20951;-59
2021/10/28 01:01:10;;;;;;;27.93;18.67;;;;;;;6.32;75.57;100386.66;1729660;81;21074;-58
2021/10/28 01:03:40;;;;;;;26.50;18.53;;;;;;;6.30;75.57;100381.33;1728850;81;22421;-58
2021/10/28 01:06:07;;;;;;;27.43;19.07;;;;;;;6.29;75.55;100386.73;1730162;81;21041;-58
2021/10/28 01:08:39;;;;;;;20.73;16.30;;;;;;;6.26;75.55;100382.78;1732908;81;20969;-58
2021/10/28 01:11:08;;;;;;;22.55;17.10;;;;;;;6.24;75.55;100372.56;1737203;81;20965;-58
2021/10/28 01:13:36;;;;;;;26.73;16.17;;;;;;;6.22;75.59;100373.93;1730673;81;21408;-59
2021/10/28 01:16:03;;;;;;;24.60;16.17;;;;;;;6.22;75.67;100365.91;1732468;81;21447;-58
2021/10/28 01:18:30;;;;;;;24.73;16.90;;;;;;;6.24;75.72;100377.91;1727918;81;21392;-59
2021/10/28 01:20:57;;;;;;;25.33;17.50;;;;;;;6.24;75.78;100384.59;1728803;81;20918;-57
2021/10/28 01:23:24;;;;;;;28.97;18.73;;;;;;;6.25;75.81;100368.98;1737536;81;21362;-59
2021/10/28 01:25:52;;;;;;;29.40;19.80;;;;;;;6.24;75.84;100378.80;1734238;81;20908;-57
2021/10/28 01:28:19;;;;;;;27.50;18.50;;;;;;;6.23;75.85;100374.36;1725978;81;21127;-57
2021/10/28 01:30:48;;;;;;;27.93;18.67;;;;;;;6.22;75.86;100383.28;1735546;81;20978;-57
2021/10/28 01:33:14;;;;;;;23.23;15.93;;;;;;;6.20;75.89;100377.12;1733345;81;20966;-57
2021/10/28 01:35:41;;;;;;;25.67;16.70;;;;;;;6.20;75.89;100366.42;1727592;81;20970;-57
2021/10/28 01:38:10;;;;;;;25.47;17.60;;;;;;;6.20;75.92;100363.75;1723881;81;21434;-57
2021/10/28 01:40:37;;;;;;;26.77;18.27;;;;;;;6.21;76.01;100355.27;1727364;81;21033;-58
2021/10/28 01:43:03;;;;;;;26.70;16.50;;;;;;;6.21;76.03;100353.45;1728067;81;20970;-58
2021/10/28 01:45:30;;;;;;;28.37;17.53;;;;;;;6.23;76.09;100350.75;1725465;81;20943;-58
2021/10/28 01:47:56;;;;;;;25.40;18.53;;;;;;;6.23;76.14;100348.96;1726704;81;20973;-58
2021/10/28 01:50:23;;;;;;;24.73;18.63;;;;;;;6.25;76.06;100356.50;1688400;83;20915;-59
2021/10/28 01:52:51;;;;;;;28.53;18.90;;;;;;;6.24;76.01;100353.85;1723846;81;21091;-58
2021/10/28 01:55:18;;;;;;;30.07;21.40;;;;;;;6.20;76.02;100354.39;1725454;81;20981;-59
2021/10/28 01:57:45;;;;;;;27.07;18.23;;;;;;;6.19;76.04;100356.64;1728293;81;21815;-58
2021/10/28 02:00:15;;;;;;;28.17;18.20;;;;;;;6.17;76.11;100353.11;1722474;81;21001;-58
2021/10/28 02:02:42;;;;;;;24.43;18.37;;;;;;;6.18;76.19;100362.02;1686803;83;21069;-57
2021/10/28 02:05:10;;;;;;;25.60;17.13;;;;;;;6.17;76.24;100361.58;1730831;81;21193;-57
2021/10/28 02:07:37;;;;;;;25.70;17.43;;;;;;;6.16;76.25;100359.82;1693393;83;21089;-57
2021/10/28 02:10:06;;;;;;;24.37;16.67;;;;;;;6.18;76.31;100356.67;1727214;81;21035;-58
2021/10/28 02:12:33;;;;;;;25.67;17.87;;;;;;;6.18;76.27;100350.86;1691022;83;21058;-57
2021/10/28 02:15:00;;;;;;;26.60;19.13;;;;;;;6.19;76.27;100341.94;1729898;81;21038;-58
2021/10/28 02:17:26;;;;;;;30.47;21.53;;;;;;;6.19;76.25;100345.06;1729136;81;21144;-58
2021/10/28 02:19:53;;;;;;;29.70;21.23;;;;;;;6.18;76.23;100352.66;1722816;81;21061;-57
2021/10/28 02:22:20;;;;;;;30.40;22.17;;;;;;;6.16;76.23;100343.78;1721167;81;21073;-57
2021/10/28 02:24:46;;;;;;;36.57;22.67;;;;;;;6.14;76.28;100354.95;1721619;81;21394;-58
2021/10/28 02:27:13;;;;;;;30.00;18.50;;;;;;;6.12;76.25;100362.14;1720754;81;21059;-57
2021/10/28 02:29:39;;;;;;;29.30;18.67;;;;;;;6.12;76.23;100367.49;1690690;83;21533;-58
2021/10/28 02:32:09;;;;;;;24.53;19.07;;;;;;;6.07;76.28;100363.11;1726135;81;21905;-59
2021/10/28 02:34:36;;;;;;;27.43;17.73;;;;;;;6.08;76.35;100365.32;1728087;81;22548;-57
2021/10/28 02:37:04;;;;;;;29.43;19.17;;;;;;;6.09;76.40;100373.77;1732813;80;21144;-58
2021/10/28 02:39:32;;;;;;;26.70;18.53;;;;;;;6.08;76.36;100366.20;1738390;80;21079;-57
2021/10/28 02:41:59;;;;;;;24.57;17.63;;;;;;;6.10;76.38;100365.30;1747064;80;21821;-57
2021/10/28 02:44:26;;;;;;;29.40;20.77;;;;;;;6.08;76.37;100363.98;1735730;81;21172;-57
2021/10/28 02:46:53;;;;;;;32.57;19.87;;;;;;;6.08;76.40;100357.30;1740924;80;21084;-58
2021/10/28 02:49:19;;;;;;;30.97;20.37;;;;;;;6.07;76.38;100352.87;1744326;81;21767;-58
2021/10/28 02:51:47;;;;;;;32.13;21.10;;;;;;;6.05;76.41;100360.91;1700733;82;21125;-56
2021/10/28 02:54:22;;;;;;;25.40;19.23;;;;;;;6.03;76.45;100353.86;1699316;82;21191;-57
2021/10/28 02:56:48;;;;;;;32.07;19.20;;;;;;;6.01;76.49;100347.20;1688118;83;21620;-57
2021/10/28 02:59:15;;;;;;;25.90;18.27;;;;;;;6.00;76.61;100350.78;1686945;83;21581;-58
2021/10/28 03:01:51;;;;;;;26.60;18.80;;;;;;;6.01;76.68;100347.66;1687816;83;21657;-57
2021/10/28 03:04:20;;;;;;;23.73;17.70;;;;;;;6.01;76.70;100347.20;1696359;82;22681;-57
2021/10/28 03:06:47;;;;;;;28.27;18.53;;;;;;;6.03;76.81;100346.72;1701872;82;21151;-57
2021/10/28 03:09:19;;;;;;;31.07;19.30;;;;;;;6.05;76.82;100339.53;1702177;82;21112;-58
2021/10/28 03:11:48;;;;;;;25.57;19.27;;;;;;;6.08;76.75;100344.83;1699654;82;21061;-58
2021/10/28 03:14:17;;;;;;;26.70;19.93;;;;;;;6.08;76.75;100339.94;1704766;82;21062;-59
2021/10/28 03:27:22;;;;;;;28.70;19.53;;;;;;;6.05;76.89;100343.54;1683078;83;21148;-58
2021/10/28 03:29:48;;;;;;;30.33;19.60;;;;;;;6.05;76.97;100343.54;1687044;83;21072;-58
2021/10/28 03:32:15;;;;;;;27.37;18.83;;;;;;;6.05;77.04;100345.33;1687298;83;21134;-57
2021/10/28 03:34:43;;;;;;;31.60;19.57;;;;;;;6.06;77.12;100336.41;1706119;82;21242;-57
2021/10/28 03:37:18;;;;;;;26.00;18.17;;;;;;;6.06;77.12;100334.61;1683042;83;22286;-57
2021/10/28 03:53:39;;;;;;;27.37;21.30;;;;;;;6.18;77.18;100340.62;1729634;81;21225;-58
2021/10/28 03:56:07;;;;;;;31.47;22.33;;;;;;;6.18;77.19;100338.84;1725284;81;21065;-59
2021/10/28 03:58:39;;;;;;;27.03;19.27;;;;;;;6.19;77.15;100334.38;1684682;83;21683;-60
2021/10/28 04:06:26;;;;;;;23.00;17.90;;;;;;;6.22;77.24;100320.46;1700410;81;21366;-59
2021/10/28 04:16:16;;;;;;;29.80;19.10;;;;;;;6.25;77.23;100314.19;1720076;81;21155;-57
2021/10/28 04:19:45;;;;;;;31.43;20.47;;;;;;;6.33;77.13;100318.91;1725437;81;21063;-58
2021/10/28 04:28:53;;;;;;;28.07;19.37;;;;;;;6.33;77.14;100328.27;1722240;81;21089;-58
2021/10/28 04:30:08;;;;;;;28.42;19.23;;;;;;;6.41;77.29;100335.20;1727978;81;21089;-59
2021/10/28 04:32:35;;;;;;;25.57;17.30;;;;;;;6.45;77.27;100334.69;1732320;81;21046;-57
2021/10/28 04:35:01;;;;;;;27.77;19.37;;;;;;;6.49;77.29;100329.67;1705703;81;21046;-58
2021/10/28 04:37:28;;;;;;;29.07;20.53;;;;;;;6.53;77.28;100331.84;1723507;81;21131;-58
2021/10/28 04:39:55;;;;;;;29.07;22.13;;;;;;;6.56;77.22;100327.28;1728136;81;20966;-59
2021/10/28 04:42:21;;;;;;;31.87;24.30;;;;;;;6.60;77.10;100325.43;1726830;81;20983;-57
2021/10/28 04:44:47;;;;;;;41.60;27.50;;;;;;;6.61;77.04;100321.84;1731540;81;20930;-58
2021/10/28 04:47:14;;;;;;;36.87;27.33;;;;;;;6.62;76.98;100317.80;1725151;81;20930;-57
2021/10/28 04:49:40;;;;;;;35.50;28.27;;;;;;;6.65;76.94;100321.72;1728809;81;21774;-57
2021/10/28 04:52:07;;;;;;;34.90;25.17;;;;;;;6.68;76.89;100316.77;1724401;81;21659;-57
2021/10/28 04:54:34;;;;;;;35.10;25.87;;;;;;;6.69;76.81;100314.52;1729832;81;20911;-57
2021/10/28 04:57:00;;;;;;;30.03;21.33;;;;;;;6.71;76.80;100320.27;1685557;82;20931;-57
2021/10/28 04:59:26;;;;;;;29.47;20.27;;;;;;;6.75;76.77;100322.39;1725050;81;21436;-59
2021/10/28 05:01:53;;;;;;;31.93;23.00;;;;;;;6.78;76.74;100327.22;1725590;81;21341;-58
2021/10/28 05:04:19;;;;;;;29.07;20.90;;;;;;;6.82;76.66;100328.89;1723570;81;21494;-58
2021/10/28 05:06:45;;;;;;;37.10;24.73;;;;;;;6.86;76.58;100330.17;1727861;81;20915;-59
2021/10/28 05:09:15;;;;;;;30.93;22.60;;;;;;;6.88;76.51;100328.34;1729486;81;20891;-57
2021/10/28 05:11:40;;;;;;;26.20;20.03;;;;;;;6.87;76.43;100326.13;1692932;83;21464;-57
2021/10/28 05:14:06;;;;;;;30.70;21.23;;;;;;;6.87;76.42;100333.27;1731495;81;21098;-57
2021/10/28 05:16:33;;;;;;;27.03;19.83;;;;;;;6.87;76.39;100337.28;1720546;81;21085;-57
2021/10/28 05:18:59;;;;;;;24.50;18.47;;;;;;;6.88;76.41;100341.73;1727126;81;21407;-58
2021/10/28 05:21:26;;;;;;;27.80;18.70;;;;;;;6.89;76.42;100340.32;1727194;81;21398;-57
2021/10/28 05:23:53;;;;;;;28.67;17.97;;;;;;;6.92;76.43;100335.36;1721834;81;21374;-58
2021/10/28 05:26:19;;;;;;;25.70;18.53;;;;;;;6.95;76.44;100341.54;1726343;81;21243;-58
2021/10/28 05:28:46;;;;;;;25.07;19.00;;;;;;;6.99;76.47;100331.62;1727543;81;21702;-58
2021/10/28 05:31:12;;;;;;;26.13;19.77;;;;;;;7.05;76.45;100320.78;1729405;81;21105;-56
2021/10/28 05:33:38;;;;;;;30.17;22.17;;;;;;;7.10;76.39;100327.77;1725315;81;21921;-57
2021/10/28 05:36:05;;;;;;;33.37;23.43;;;;;;;7.12;76.35;100324.60;1722247;81;21745;-57
2021/10/28 05:38:31;;;;;;;33.37;24.90;;;;;;;7.17;76.32;100316.44;1731323;81;21765;-57
2021/10/28 05:40:57;;;;;;;30.20;23.10;;;;;;;7.20;76.20;100324.41;1729764;81;21026;-57
2021/10/28 05:43:23;;;;;;;27.00;20.37;;;;;;;7.20;76.12;100329.30;1725275;81;21072;-56
2021/10/28 05:45:51;;;;;;;26.97;20.40;;;;;;;7.23;76.09;100332.83;1691408;82;21099;-57
2021/10/28 05:48:18;;;;;;;31.53;19.40;;;;;;;7.25;76.07;100339.00;1722838;81;21009;-59
2021/10/28 05:50:46;;;;;;;25.93;19.67;;;;;;;7.27;76.04;100341.19;1728961;81;21160;-56
2021/10/28 05:53:13;;;;;;;26.77;18.93;;;;;;;7.30;76.04;100339.78;1696617;83;21499;-59
2021/10/28 05:55:39;;;;;;;26.77;19.70;;;;;;;7.34;75.97;100345.01;1733996;81;21622;-58
2021/10/28 05:58:05;;;;;;;28.27;20.20;;;;;;;7.38;75.97;100341.80;1701271;82;21772;-57
2021/10/28 06:00:32;;;;;;;28.40;20.73;;;;;;;7.41;75.87;100347.94;1731998;81;21411;-57
2021/10/28 06:02:58;;;;;;;28.20;21.40;;;;;;;7.44;75.82;100354.57;1737671;81;22568;-57
2021/10/28 06:05:25;;;;;;;32.00;22.13;;;;;;;7.46;75.73;100353.20;1729860;81;21498;-57
2021/10/28 06:07:51;;;;;;;27.70;21.57;;;;;;;7.47;75.65;100359.86;1705233;81;21184;-56
2021/10/28 06:10:19;;;;;;;26.87;20.47;;;;;;;7.48;75.61;100352.25;1731797;81;21155;-57
2021/10/28 06:12:52;;;;;;;28.03;20.50;;;;;;;7.52;75.62;100347.20;1728678;81;21191;-57
2021/10/28 06:15:17;;;;;;;24.30;18.70;;;;;;;7.55;75.62;100339.56;1692381;82;21734;-58
2021/10/28 06:17:51;;;;;;;26.53;19.03;;;;;;;7.60;75.63;100347.00;1734451;81;21045;-57
2021/10/28 06:20:12;;;;;;;29.13;19.37;;;;;;;7.64;75.60;100342.00;1691610;82;21077;-57
2021/10/28 06:22:39;;;;;;;26.77;19.93;;;;;;;7.69;75.55;100348.09;1737013;81;21086;-56
2021/10/28 06:25:06;;;;;;;28.90;20.47;;;;;;;7.74;75.49;100353.35;1696224;82;21169;-58
2021/10/28 06:27:33;;;;;;;30.43;20.07;;;;;;;7.78;75.40;100357.69;1733827;81;21101;-57
2021/10/28 06:29:59;;;;;;;33.33;21.10;;;;;;;7.81;75.31;100359.84;1733712;81;21084;-57
2021/10/28 06:32:26;;;;;;;27.00;19.13;;;;;;;7.84;75.27;100360.19;1734672;80;20950;-57
2021/10/28 06:34:52;;;;;;;25.57;19.63;;;;;;;7.87;75.21;100365.02;1729580;80;21093;-57
2021/10/28 06:37:18;;;;;;;24.87;18.90;;;;;;;7.91;75.18;100364.00;1732084;81;21093;-57
2021/10/28 06:39:45;;;;;;;25.97;19.40;;;;;;;7.93;75.17;100360.82;1735177;81;21272;-58
2021/10/28 06:42:14;;;;;;;22.40;17.27;;;;;;;7.96;75.13;100363.42;1736222;81;20968;-57
2021/10/28 06:44:43;;;;;;;27.93;19.63;;;;;;;8.03;75.10;100370.83;1734434;81;21579;-58
2021/10/28 06:47:10;;;;;;;21.80;16.03;;;;;;;8.08;75.00;100373.41;1697757;82;21070;-57
2021/10/28 06:49:40;;;;;;;27.33;20.67;;;;;;;8.11;74.91;100371.49;1670245;84;21481;-57
2021/10/28 06:52:07;;;;;;;26.83;19.67;;;;;;;8.14;74.84;100378.12;1728266;81;21220;-57
2021/10/28 06:54:41;;;;;;;30.07;21.37;;;;;;;8.18;74.80;100367.70;1729899;81;21166;-58
2021/10/28 07:02:37;;;;;;;28.25;19.20;;;;;;;8.28;74.54;100357.59;1693340;82;22262;-56
2021/10/28 07:05:04;;;;;;;21.73;16.63;;;;;;;8.31;74.48;100357.09;1730391;81;21059;-58
2021/10/28 07:07:33;;;;;;;23.57;17.00;;;;;;;8.35;74.47;100361.42;1693595;82;22304;-58
2021/10/28 07:10:09;;;;;;;23.45;16.80;;;;;;;8.40;74.39;100360.42;1731102;80;21066;-58
2021/10/28 07:15:06;;;;;;;23.12;17.52;;;;;;;8.49;74.22;100362.37;1728457;81;21356;-56
2021/10/28 07:17:35;;;;;;;23.47;18.07;;;;;;;8.54;74.10;100363.10;1734306;81;21535;-56
2021/10/28 07:28:15;;;;;;;23.27;16.70;;;;;;;8.61;73.80;100363.78;1732767;81;21136;-59
2021/10/28 07:33:42;;;;;;;22.30;17.45;;;;;;;8.65;73.76;100375.73;1694641;82;21111;-57
2021/10/28 07:36:13;;;;;;;27.58;17.25;;;;;;;8.70;73.70;100371.09;1727034;81;22229;-58
2021/10/28 07:38:53;;;;;;;25.15;17.95;;;;;;;8.75;73.62;100364.73;1727614;81;21086;-57
2021/10/28 07:57:54;;;;;;;23.57;16.52;;;;;;;8.93;73.42;100344.02;1735218;81;21126;-56
2021/10/28 08:00:32;;;;;;;24.10;19.05;;;;;;;8.99;73.43;100340.66;1728824;81;20878;-57
2021/10/28 08:14:18;;;;;;;24.57;16.75;;;;;;;9.30;73.06;100326.20;1674061;84;20922;-57
2021/10/28 08:21:37;;;;;;;25.35;19.30;;;;;;;9.46;73.00;100323.40;1736227;80;20906;-56
2021/10/28 08:24:08;;;;;;;24.75;16.70;;;;;;;9.55;72.87;100315.48;1736512;81;21088;-56
2021/10/28 08:29:31;;;;;;;21.85;17.55;;;;;;;9.69;72.79;100308.71;1693641;82;21065;-55
2021/10/28 08:31:44;;;;;;;22.40;17.07;;;;;;;9.76;72.63;100299.48;1692731;82;20995;-56
2021/10/28 08:34:11;;;;;;;22.17;16.00;;;;;;;9.85;72.58;100300.96;1738996;81;20986;-58
2021/10/28 08:36:41;;;;;;;21.70;16.05;;;;;;;9.91;72.47;100287.75;1734477;80;22109;-55
2021/10/28 08:39:07;;;;;;;23.02;16.07;;;;;;;9.95;72.32;100286.25;1733099;81;21081;-56
2021/10/28 08:41:34;;;;;;;23.87;17.07;;;;;;;10.01;72.19;100289.16;1733220;80;21874;-56
2021/10/28 08:44:02;;;;;;;19.77;15.13;;;;;;;10.06;72.12;100297.46;1692962;83;21578;-57
2021/10/28 08:46:29;;;;;;;23.60;14.05;;;;;;;10.13;72.01;100294.06;1734890;80;20983;-57
2021/10/28 08:48:59;;;;;;;22.73;15.55;;;;;;;10.19;71.94;100298.80;1732866;81;21166;-55
2021/10/28 08:51:38;;;;;;;20.08;14.38;;;;;;;10.27;71.83;100306.58;1733044;81;21456;-55
2021/10/28 08:59:24;;;;;;;17.82;13.98;;;;;;;10.51;71.51;100306.09;1731689;81;21334;-55
2021/10/28 09:32:16;;;;;;;16.75;13.05;;;;;;;11.17;69.27;100324.50;1671276;84;21057;-56
2021/10/28 09:49:47;;;;;;;20.85;15.40;;;;;;;11.31;68.87;100315.39;1699426;82;20948;-56
2021/10/28 09:52:49;;;;;;;16.27;14.43;;;;;;;11.41;68.77;100303.72;1791279;78;22970;-56
2021/10/28 09:58:05;;;;;;;18.17;13.62;;;;;;;11.42;68.75;100313.56;1696666;83;22016;-56
2021/10/28 10:00:35;;;;;;;18.32;14.58;;;;;;;11.44;68.53;100301.78;1718573;80;21040;-57
2021/10/28 10:03:18;;;;;;;17.30;12.20;;;;;;;11.47;68.48;100306.17;1765133;80;21081;-56
2021/10/28 10:05:39;;;;;;;20.37;13.32;;;;;;;11.51;68.55;100305.08;1762932;80;21049;-58
2021/10/28 10:08:07;;;;;;;19.00;12.78;;;;;;;11.56;68.52;100306.66;1768538;80;21048;-58
2021/10/28 10:10:34;;;;;;;21.30;15.08;;;;;;;11.61;68.40;100309.14;1762790;80;22783;-56
2021/10/28 10:13:02;;;;;;;22.17;14.70;;;;;;;11.66;68.34;100320.58;1764346;80;21504;-58
2021/10/28 10:15:31;;;;;;;18.62;13.78;;;;;;;11.71;68.17;100318.59;1737369;80;20977;-58
2021/10/28 10:18:01;;;;;;;17.62;14.47;;;;;;;11.74;68.00;100315.30;1767142;80;21405;-58
2021/10/28 10:20:35;;;;;;;20.97;13.45;;;;;;;11.78;67.95;100301.69;1766203;80;21045;-57
2021/10/28 10:23:24;;;;;;;16.77;12.20;;;;;;;11.84;67.79;100306.80;1729963;81;21202;-56
2021/10/28 11:24:13;;;;;;;13.03;9.73;;;;;;;12.71;64.53;100255.89;1736786;80;20888;-56
2021/10/28 12:20:00;;;;;;;;;;;;;;;13.50;62.86;100288.41;1727880;81;21045;-58
2021/10/28 12:25:05;;;;;;;6.25;5.53;;;;;;;13.39;63.04;100292.13;1729365;81;21293;-58
2021/10/28 12:44:47;;;;;;;6.75;5.67;;;;;;;13.36;63.13;100299.03;1686112;82;22243;-57
2021/10/28 14:00:57;;;;;;;7.20;4.00;;;;;;;13.43;63.43;100330.72;1664052;84;21435;-55
2021/10/28 14:19:45;;;;;;;5.90;4.05;;;;;;;13.26;63.82;100327.52;1663633;84;22091;-55
2021/10/28 14:37:53;;;;;;;7.05;5.72;;;;;;;13.30;63.78;100339.91;1660862;84;21021;-55
2021/10/28 15:00:15;;;;;;;14.20;7.17;;;;;;;13.21;64.27;100348.47;1665029;84;22902;-56
2021/10/28 15:29:18;;;;;;;20.52;12.98;;;;;;;13.13;64.73;100372.27;1664708;83;21050;-55
2021/10/28 15:37:01;;;;;;;20.20;12.50;;;;;;;13.08;65.08;100385.14;1664826;84;21056;-58
2021/10/28 16:00:28;;;;;;;22.70;15.45;;;;;;;13.07;65.62;100411.30;1665644;84;21350;-56
2021/10/28 16:22:04;;;;;;;16.05;12.23;;;;;;;13.11;66.60;100431.80;1660742;83;21057;-57
2021/10/28 16:24:33;;;;;;;15.08;11.38;;;;;;;13.11;66.76;100433.63;1661586;84;21135;-56
2021/10/28 16:27:01;;;;;;;14.05;10.50;;;;;;;13.09;66.93;100439.14;1663672;83;21069;-55
2021/10/28 16:29:28;;;;;;;16.75;11.28;;;;;;;13.09;66.93;100439.14;1663614;84;21548;-55
2021/10/28 16:31:55;;;;;;;14.38;9.98;;;;;;;13.07;67.12;100434.27;1659288;84;21857;-57
2021/10/28 16:34:23;;;;;;;12.93;9.53;;;;;;;13.06;67.29;100441.09;1660000;84;21436;-56
2021/10/28 16:36:49;;;;;;;13.10;8.48;;;;;;;13.05;67.42;100442.04;1662640;83;21068;-56
2021/10/28 16:39:16;;;;;;;12.33;8.33;;;;;;;13.04;67.61;100446.56;1672129;83;21805;-56
2021/10/28 16:41:45;;;;;;;14.68;8.30;;;;;;;13.04;67.78;100438.93;1674092;83;21123;-57
2021/10/28 16:44:13;;;;;;;9.23;6.87;;;;;;;13.05;67.97;100447.44;1673982;83;21213;-56
2021/10/28 16:46:40;;;;;;;12.20;8.30;;;;;;;13.07;68.04;100453.19;1676303;83;21261;-58
2021/10/28 16:49:07;;;;;;;17.02;9.00;;;;;;;13.08;68.10;100450.02;1673809;83;22177;-57
2021/10/28 16:51:34;;;;;;;14.30;10.25;;;;;;;13.10;68.12;100449.47;1677349;83;21099;-57
2021/10/28 16:54:00;;;;;;;14.87;9.45;;;;;;;13.11;68.11;100453.90;1674943;83;21601;-56
2021/10/28 16:56:27;;;;;;;12.93;9.63;;;;;;;13.12;68.12;100459.71;1674370;83;21566;-56
2021/10/28 16:58:53;;;;;;;15.72;8.98;;;;;;;13.10;68.11;100455.72;1676260;83;21539;-57
2021/10/28 17:01:19;;;;;;;18.57;10.45;;;;;;;13.07;68.03;100462.65;1675967;83;21051;-57
2021/10/28 17:03:46;;;;;;;15.90;11.83;;;;;;;13.07;68.03;100462.65;1676878;84;21076;-58
2021/10/28 17:06:15;;;;;;;23.35;12.05;;;;;;;13.07;68.15;100466.70;1676493;83;21065;-57
2021/10/28 17:08:41;;;;;;;16.55;10.93;;;;;;;13.06;68.21;100466.77;1676866;83;21164;-57
2021/10/28 17:11:07;;;;;;;20.30;12.90;;;;;;;13.05;68.19;100467.71;1677163;83;20917;-58
2021/10/28 17:13:34;;;;;;;18.50;12.55;;;;;;;13.05;68.28;100468.59;1676526;83;20957;-58
2021/10/28 17:16:01;;;;;;;17.10;11.22;;;;;;;13.05;68.18;100471.77;1678682;83;20969;-57
2021/10/28 17:18:28;;;;;;;20.05;12.93;;;;;;;13.06;68.27;100473.52;1681970;83;20905;-58
2021/10/28 17:21:00;;;;;;;20.75;13.13;;;;;;;13.07;68.32;100479.34;1678677;83;20923;-58
2021/10/28 17:23:32;;;;;;;23.90;16.00;;;;;;;13.05;68.35;100480.75;1609818;88;20931;-57
2021/10/28 17:25:59;;;;;;;20.65;14.28;;;;;;;13.06;68.34;100483.86;1672353;83;21947;-57
2021/10/28 17:28:25;;;;;;;21.68;14.47;;;;;;;13.04;68.35;100482.17;1681178;83;20929;-57
2021/10/28 17:30:52;;;;;;;26.95;14.53;;;;;;;13.02;68.35;100479.53;1675800;84;21005;-57
2021/10/28 17:33:18;;;;;;;26.30;15.03;;;;;;;13.00;68.41;100480.58;1680463;83;21365;-57
2021/10/28 17:35:44;;;;;;;25.70;15.43;;;;;;;12.98;68.46;100483.81;1679203;83;22013;-58
2021/10/28 17:38:12;;;;;;;21.70;13.48;;;;;;;12.97;68.49;100482.94;1676146;83;20969;-56
2021/10/28 17:40:38;;;;;;;18.77;13.18;;;;;;;12.98;68.58;100486.52;1664304;83;20994;-58
2021/10/28 17:43:11;;;;;;;15.80;11.60;;;;;;;12.96;68.63;100485.70;1663959;84;21073;-56
2021/10/28 17:45:36;;;;;;;19.07;12.70;;;;;;;12.97;68.69;100486.11;1660664;84;21089;-56
2021/10/28 17:48:02;;;;;;;22.60;13.25;;;;;;;12.97;68.69;100486.11;1663394;83;21020;-57
2021/10/28 17:50:28;;;;;;;17.60;13.55;;;;;;;12.99;68.71;100490.98;1661049;84;21124;-58
2021/10/28 17:52:54;;;;;;;21.40;13.93;;;;;;;12.99;68.67;100493.21;1666041;84;21100;-56
2021/10/28 17:55:22;;;;;;;17.17;12.33;;;;;;;12.99;68.69;100495.03;1663645;84;21093;-57
2021/10/28 17:57:52;;;;;;;14.95;11.93;;;;;;;12.98;68.69;100491.45;1662288;83;21113;-57
2021/10/28 18:00:20;;;;;;;17.95;11.60;;;;;;;12.97;68.68;100493.75;1663010;84;21093;-56
2021/10/28 18:02:49;;;;;;;17.25;11.40;;;;;;;12.96;68.69;100489.76;1665254;84;21057;-57
2021/10/28 18:05:15;;;;;;;15.83;10.43;;;;;;;12.95;68.71;100486.65;1666689;84;21104;-57
2021/10/28 18:07:42;;;;;;;13.43;10.10;;;;;;;12.95;68.74;100497.45;1663762;84;21112;-57
2021/10/28 18:10:09;;;;;;;15.32;11.40;;;;;;;12.93;68.82;100505.63;1662279;84;21082;-56
2021/10/28 18:12:35;;;;;;;14.20;11.00;;;;;;;12.93;68.87;100505.63;1662334;84;21076;-57
2021/10/28 18:15:07;;;;;;;12.28;10.68;;;;;;;12.93;68.92;100502.08;1664970;84;21065;-56
2021/10/28 18:17:35;;;;;;;16.80;12.20;;;;;;;12.94;68.93;100495.23;1666079;83;22062;-56
2021/10/28 18:20:03;;;;;;;21.90;12.70;;;;;;;12.95;68.93;100492.94;1662033;84;21486;-58
2021/10/28 18:22:36;;;;;;;18.73;13.68;;;;;;;12.96;68.91;100504.63;1663963;84;21159;-57
2021/10/28 18:24:59;;;;;;;17.62;13.05;;;;;;;12.95;68.94;100502.86;1659623;84;21112;-58
2021/10/28 18:27:26;;;;;;;25.88;15.25;;;;;;;12.95;68.93;100504.21;1665375;83;21701;-57
2021/10/28 18:29:52;;;;;;;19.10;13.90;;;;;;;12.93;68.93;100508.84;1666366;84;21068;-58
2021/10/28 18:32:19;;;;;;;19.60;13.55;;;;;;;12.92;68.97;100508.43;1665030;84;21108;-56
2021/10/28 18:34:47;;;;;;;22.50;18.07;;;;;;;12.91;69.00;100508.02;1660633;84;21153;-57
2021/10/28 18:37:14;;;;;;;32.95;22.67;;;;;;;12.89;69.05;100508.09;1664008;83;21475;-57
2021/10/28 18:39:40;;;;;;;27.07;20.32;;;;;;;12.89;69.08;100512.14;1663910;83;21614;-58
2021/10/28 18:42:07;;;;;;;28.00;22.15;;;;;;;12.89;69.12;100517.07;1664610;84;21575;-56
2021/10/28 18:44:35;;;;;;;24.40;17.20;;;;;;;12.91;69.12;100510.72;1663932;84;21685;-56
2021/10/28 18:47:02;;;;;;;25.97;20.30;;;;;;;12.90;69.12;100509.84;1664609;84;21599;-56
2021/10/28 18:49:29;;;;;;;25.60;17.25;;;;;;;12.92;69.12;100513.83;1662058;84;21044;-57
2021/10/28 18:51:55;;;;;;;59.80;47.08;;;;;;;12.90;69.10;100515.25;1665548;83;21343;-57
2021/10/28 18:54:22;;;;;;;47.67;35.73;;;;;;;12.89;69.10;100517.55;1664327;84;21532;-55
2021/10/28 18:56:49;;;;;;;55.50;36.98;;;;;;;12.87;69.14;100520.31;1666148;84;21039;-56
2021/10/28 18:59:15;;;;;;;38.53;26.12;;;;;;;12.85;69.17;100519.49;1664059;83;22076;-57
2021/10/28 19:01:43;;;;;;;64.97;47.25;;;;;;;12.86;69.22;100528.48;1666604;84;20939;-56
2021/10/28 19:04:11;;;;;;;110.60;86.08;;;;;;;12.84;69.25;100529.89;1662994;83;21042;-56
2021/10/28 19:06:38;;;;;;;79.60;60.30;;;;;;;12.85;69.31;100530.77;1630097;86;21186;-56
2021/10/28 19:09:05;;;;;;;49.88;38.90;;;;;;;12.84;69.37;100530.40;1647798;84;22645;-56
2021/10/28 19:11:31;;;;;;;40.80;30.37;;;;;;;12.83;69.42;100533.57;1661804;83;21608;-56
2021/10/28 19:13:58;;;;;;;60.33;47.43;;;;;;;12.84;69.49;100536.64;1661606;84;21175;-56
2021/10/28 19:16:25;;;;;;;67.35;50.48;;;;;;;12.83;69.50;100536.27;1665634;84;21100;-56
2021/10/28 19:18:51;;;;;;;51.90;40.92;;;;;;;12.83;69.51;100538.97;1663620;83;21080;-57
2021/10/28 19:21:18;;;;;;;54.50;46.40;;;;;;;12.83;69.54;100538.97;1661178;83;21048;-56
2021/10/28 19:23:45;;;;;;;35.58;29.80;;;;;;;12.81;69.55;100539.98;1664265;83;22059;-57
2021/10/28 19:26:11;;;;;;;26.30;19.17;;;;;;;12.78;69.61;100540.11;1663394;84;21892;-56
2021/10/28 19:28:40;;;;;;;25.00;16.35;;;;;;;12.76;69.69;100541.52;1664286;83;21524;-57
2021/10/28 19:31:12;;;;;;;19.00;13.53;;;;;;;12.76;69.76;100546.08;1663956;83;21756;-57